Time;durP1;ratioP1;P1;durP2;ratioP2;P2;SDS_P1;SDS_P2;PMS_P1;PMS_P2;Temp;Humidity;BMP_temperature;BMP_pressure;BME280_temperature;BME280_humidity;BME280_pressure;Samples;Min_cycle;Max_cycle;Signal;HPM_P1;HPM_P2
2023/12/02 00:01:54;;;;;;;71.20;30.70;;;;;;;-3.85;96.94;99210.73;131793;1298;25444;-80
2023/12/02 00:04:55;;;;;;;57.50;29.30;;;;;;;-3.82;96.87;99215.08;131583;1295;22550;-81
2023/12/02 00:07:55;;;;;;;53.10;26.00;;;;;;;-3.82;97.01;99222.98;131964;1295;22594;-80
2023/12/02 00:10:56;;;;;;;54.70;26.80;;;;;;;-3.80;96.85;99220.27;131626;1297;23305;-80
2023/12/02 00:13:56;;;;;;;57.80;27.20;;;;;;;-3.79;96.95;99216.59;131594;1295;22556;-81
2023/12/02 00:16:57;;;;;;;69.10;28.60;;;;;;;-3.81;96.86;99218.40;131583;1298;22885;-80
2023/12/02 00:19:57;;;;;;;62.70;30.00;;;;;;;-3.82;96.76;99223.67;131685;1297;22608;-80
2023/12/02 00:22:58;;;;;;;77.70;32.40;;;;;;;-3.84;96.74;99220.00;131635;1295;23254;-81
2023/12/02 00:25:58;;;;;;;70.10;31.50;;;;;;;-3.85;96.99;99211.56;131603;1289;22587;-79
2023/12/02 00:28:59;;;;;;;71.30;34.50;;;;;;;-3.82;97.09;99214.02;131604;1295;23235;-80
2023/12/02 00:31:59;;;;;;;81.10;36.50;;;;;;;-3.81;97.02;99213.96;131631;1299;24729;-80
2023/12/02 00:35:00;;;;;;;76.70;36.00;;;;;;;-3.80;97.04;99207.98;131750;1298;22542;-81
2023/12/02 00:38:00;;;;;;;75.10;34.10;;;;;;;-3.77;96.99;99208.52;131626;1292;22576;-81
2023/12/02 00:41:01;;;;;;;83.70;36.70;;;;;;;-3.74;96.95;99217.77;131835;1298;24263;-80
2023/12/02 00:44:01;;;;;;;79.80;36.30;;;;;;;-3.70;96.93;99213.04;131654;1288;23027;-81
2023/12/02 00:47:02;;;;;;;82.10;38.10;;;;;;;-3.69;96.88;99217.83;131584;1292;22600;-80
2023/12/02 00:50:03;;;;;;;79.60;39.40;;;;;;;-3.64;97.22;99230.98;131665;1295;23418;-81
2023/12/02 00:53:03;;;;;;;76.70;34.40;;;;;;;-3.60;97.19;99235.42;131519;1298;22602;-80
2023/12/02 00:56:04;;;;;;;75.90;34.30;;;;;;;-3.60;96.99;99233.16;131710;1298;22564;-82
2023/12/02 00:59:05;;;;;;;74.10;34.40;;;;;;;-3.58;96.94;99239.06;131558;1298;22599;-80
2023/12/02 01:02:06;;;;;;;;;;;;;;;-3.52;97.25;99245.63;131543;1292;24308;-80
2023/12/02 01:05:07;;;;;;;63.20;29.20;;;;;;;-3.49;97.35;99248.67;131544;1298;25373;-80
2023/12/02 01:08:08;;;;;;;54.50;27.60;;;;;;;-3.48;96.93;99243.64;131315;1298;24537;-80
2023/12/02 01:11:08;;;;;;;59.60;28.10;;;;;;;-3.51;96.82;99242.95;131597;1298;22701;-80
2023/12/02 01:14:09;;;;;;;53.90;26.10;;;;;;;-3.51;96.98;99237.11;131709;1293;25451;-81
2023/12/02 01:17:10;;;;;;;57.70;27.10;;;;;;;-3.56;96.74;99247.11;131228;1302;22729;-80
2023/12/02 01:20:10;;;;;;;;;;;;;;;-3.61;96.63;99238.39;131395;1298;22488;-80
2023/12/02 01:23:11;;;;;;;57.60;26.70;;;;;;;-3.66;96.72;99226.80;131445;1298;22641;-80
2023/12/02 01:26:11;;;;;;;59.00;29.30;;;;;;;-3.66;96.99;99225.05;131448;1295;25103;-80
2023/12/02 01:29:12;;;;;;;60.50;28.20;;;;;;;-3.65;96.85;99224.29;131065;1299;24758;-80
2023/12/02 01:32:12;;;;;;;53.30;25.20;;;;;;;-3.64;96.86;99219.41;131810;1294;22750;-80
2023/12/02 01:35:12;;;;;;;53.00;26.20;;;;;;;-3.67;96.89;99227.02;131441;1296;22620;-80
2023/12/02 01:38:13;;;;;;;61.00;26.80;;;;;;;-3.68;97.04;99236.94;131491;1299;22684;-80
2023/12/02 01:41:14;;;;;;;49.60;25.60;;;;;;;-3.71;96.93;99242.14;131409;1294;22654;-81
2023/12/02 01:44:14;;;;;;;52.70;24.40;;;;;;;-3.69;97.12;99237.02;131598;1297;22757;-80
2023/12/02 01:47:15;;;;;;;51.00;23.70;;;;;;;-3.73;97.11;99240.02;131478;1298;23528;-80
2023/12/02 01:50:17;;;;;;;45.50;22.80;;;;;;;-3.73;97.19;99249.36;131485;1298;22553;-81
2023/12/02 01:53:18;;;;;;;45.90;22.80;;;;;;;-3.72;96.95;99236.30;131474;1294;22563;-81
2023/12/02 01:56:19;;;;;;;46.40;23.40;;;;;;;-3.75;97.10;99238.80;131575;1298;22607;-80
2023/12/02 01:59:19;;;;;;;45.10;23.10;;;;;;;-3.79;96.95;99239.73;131585;1294;22763;-80
2023/12/02 02:02:21;;;;;;;50.50;23.50;;;;;;;-3.84;97.06;99233.30;131755;1298;22500;-80
2023/12/02 02:05:21;;;;;;;47.90;23.20;;;;;;;-3.88;97.09;99231.98;131270;1298;22739;-80
2023/12/02 02:08:22;;;;;;;43.80;22.10;;;;;;;-3.89;97.03;99226.49;131606;1299;22600;-80
2023/12/02 02:11:23;;;;;;;51.40;22.60;;;;;;;-3.91;97.00;99222.16;131567;1299;22578;-79
2023/12/02 02:14:24;;;;;;;48.00;23.00;;;;;;;-3.89;97.12;99227.41;131616;1298;140818;-80
2023/12/02 02:17:24;;;;;;;48.40;24.90;;;;;;;-3.87;97.29;99224.31;131652;1298;23750;-79
2023/12/02 02:20:25;;;;;;;46.40;22.50;;;;;;;-3.82;97.29;99226.79;131606;1298;23319;-80
2023/12/02 02:23:25;;;;;;;43.10;21.30;;;;;;;-3.80;97.29;99226.14;131615;1295;22560;-79
2023/12/02 02:26:26;;;;;;;38.80;19.90;;;;;;;-3.78;97.36;99221.52;131903;1298;22591;-79
2023/12/02 02:29:26;;;;;;;47.30;21.40;;;;;;;-3.77;97.15;99217.80;131594;1299;22704;-80
2023/12/02 02:32:27;;;;;;;43.80;22.20;;;;;;;-3.79;97.08;99220.21;131601;1297;24416;-80
2023/12/02 02:35:27;;;;;;;41.70;22.40;;;;;;;-3.80;97.04;99218.05;131661;1295;22722;-80
2023/12/02 02:38:28;;;;;;;46.40;23.10;;;;;;;-3.82;97.07;99221.45;131647;1294;22549;-79
2023/12/02 02:41:28;;;;;;;50.80;25.30;;;;;;;-3.82;97.20;99212.45;131619;1298;22809;-79
2023/12/02 02:44:29;;;;;;;47.30;25.10;;;;;;;-3.80;97.27;99209.36;131620;1299;22576;-79
2023/12/02 02:47:29;;;;;;;52.20;25.90;;;;;;;-3.77;97.30;99209.50;131550;1299;24225;-79
2023/12/02 02:50:29;;;;;;;49.90;25.80;;;;;;;-3.75;97.23;99207.49;131671;1298;22606;-80
2023/12/02 02:53:30;;;;;;;162.10;30.80;;;;;;;-3.72;97.24;99202.26;131658;1295;22575;-80
2023/12/02 02:56:31;;;;;;;49.20;25.40;;;;;;;-3.73;97.10;99199.10;131873;1298;25335;-80
2023/12/02 02:59:32;;;;;;;44.10;21.90;;;;;;;-3.74;96.94;99194.30;131576;1294;22556;-78
2023/12/02 03:02:32;;;;;;;45.60;23.00;;;;;;;-3.77;97.11;99192.39;131611;1300;22587;-79
2023/12/02 03:05:33;;;;;;;45.60;24.30;;;;;;;-3.79;96.97;99188.92;131578;1296;23245;-80
2023/12/02 03:08:35;;;;;;;51.30;23.90;;;;;;;-3.83;96.98;99182.77;131612;1295;22598;-79
2023/12/02 03:11:35;;;;;;;50.50;24.90;;;;;;;-3.82;97.21;99187.37;131579;1298;22703;-80
2023/12/02 03:14:38;;;;;;;46.00;24.20;;;;;;;-3.77;97.46;99178.90;131627;1282;22614;-79
2023/12/02 03:17:39;;;;;;;47.10;24.50;;;;;;;-3.72;97.40;99183.42;131569;1292;24294;-79
2023/12/02 03:20:39;;;;;;;49.30;23.60;;;;;;;-3.69;97.50;99186.67;131504;1301;24386;-80
2023/12/02 03:23:40;;;;;;;53.40;25.20;;;;;;;-3.63;97.57;99191.17;131937;1298;24734;-79
2023/12/02 03:26:41;;;;;;;45.20;23.70;;;;;;;-3.59;97.59;99192.46;132105;1297;22549;-78
2023/12/02 03:29:41;;;;;;;49.00;25.10;;;;;;;-3.55;97.50;99191.33;131554;1299;22676;-79
2023/12/02 03:32:42;;;;;;;50.10;25.90;;;;;;;-3.51;97.63;99180.55;131494;1292;22637;-79
2023/12/02 03:35:43;;;;;;;57.50;29.70;;;;;;;-3.48;97.68;99168.04;131447;1294;22614;-80
2023/12/02 03:38:44;;;;;;;66.00;34.00;;;;;;;-3.47;97.46;99166.75;131558;1297;22595;-79
2023/12/02 03:41:44;;;;;;;74.10;38.30;;;;;;;-3.45;97.52;99161.27;131504;1301;24291;-80
2023/12/02 03:44:45;;;;;;;82.50;40.70;;;;;;;-3.44;97.54;99154.96;131449;1297;24396;-79
2023/12/02 03:47:45;;;;;;;88.90;43.90;;;;;;;-3.42;97.58;99149.84;131565;1299;22597;-79
2023/12/02 03:50:45;;;;;;;98.90;47.40;;;;;;;-3.40;97.47;99154.52;131457;1298;23795;-78
2023/12/02 03:53:46;;;;;;;109.40;51.30;;;;;;;-3.37;97.72;99159.22;131561;1299;22748;-79
2023/12/02 03:56:47;;;;;;;111.40;53.30;;;;;;;-3.36;97.65;99161.89;131927;1301;24291;-80
2023/12/02 03:59:47;;;;;;;117.90;57.30;;;;;;;-3.37;97.68;99174.06;131625;1297;22660;-79
2023/12/02 04:02:48;;;;;;;132.30;60.40;;;;;;;-3.35;97.57;99171.00;131642;1298;22567;-79
2023/12/02 04:05:51;;;;;;;138.70;65.60;;;;;;;-3.35;97.64;99177.04;131631;1298;22574;-79
2023/12/02 04:08:52;;;;;;;142.00;66.90;;;;;;;-3.34;97.45;99182.54;131624;1301;22594;-79
2023/12/02 04:11:52;;;;;;;140.70;66.90;;;;;;;-3.37;97.50;99178.04;131508;1298;22589;-79
2023/12/02 04:14:53;;;;;;;143.60;65.20;;;;;;;-3.43;97.15;99176.73;131535;1295;22597;-80
2023/12/02 04:17:53;;;;;;;137.70;63.70;;;;;;;-3.49;97.07;99175.04;131579;1298;25512;-79
2023/12/02 04:20:54;;;;;;;135.50;61.50;;;;;;;-3.52;97.08;99176.25;131544;1298;25437;-79
2023/12/02 04:23:55;;;;;;;141.50;64.60;;;;;;;-3.52;97.14;99171.95;131839;1301;24234;-79
2023/12/02 04:26:55;;;;;;;136.10;64.10;;;;;;;-3.54;97.37;99170.36;131593;1299;22837;-79
2023/12/02 04:29:56;;;;;;;146.00;66.60;;;;;;;-3.52;97.18;99178.55;131715;1293;22571;-79
2023/12/02 04:32:56;;;;;;;155.40;74.70;;;;;;;-3.49;97.37;99177.27;131497;1296;22599;-79
2023/12/02 04:35:57;;;;;;;164.80;76.10;;;;;;;-3.45;97.42;99178.06;131735;1297;22563;-79
2023/12/02 04:38:57;;;;;;;181.50;85.20;;;;;;;-3.42;97.39;99184.27;131491;1299;23789;-80
2023/12/02 04:41:58;;;;;;;205.80;92.70;;;;;;;-3.41;97.44;99187.27;131511;1285;24288;-79
2023/12/02 04:44:58;;;;;;;203.70;94.20;;;;;;;-3.40;97.20;99170.48;131409;1298;24755;-80
2023/12/02 04:47:59;;;;;;;205.30;93.90;;;;;;;-3.42;97.03;99160.20;131329;1299;25649;-79
2023/12/02 04:50:59;;;;;;;201.40;95.20;;;;;;;-3.46;97.05;99153.40;131560;1291;22622;-80
2023/12/02 04:54:00;;;;;;;195.40;92.80;;;;;;;-3.47;97.13;99146.01;131411;1292;22591;-79
2023/12/02 04:57:01;;;;;;;209.10;94.40;;;;;;;-3.47;97.16;99132.21;131544;1302;24276;-79
2023/12/02 05:00:05;;;;;;;209.50;91.30;;;;;;;-3.49;96.95;99128.88;131300;1297;22724;-79
2023/12/02 05:03:06;;;;;;;198.80;90.10;;;;;;;-3.49;97.04;99127.34;131521;1299;22560;-80
2023/12/02 05:06:13;;;;;;;195.10;89.60;;;;;;;-3.51;96.86;99133.69;131429;1299;23392;-79
2023/12/02 05:09:16;;;;;;;199.30;92.90;;;;;;;-3.51;97.15;99132.67;131810;1302;22652;-79
2023/12/02 05:12:16;;;;;;;206.10;92.60;;;;;;;-3.50;97.21;99134.11;131230;1298;22563;-79
2023/12/02 05:15:17;;;;;;;214.80;93.10;;;;;;;-3.49;97.01;99125.77;131496;1298;23219;-79
2023/12/02 05:18:17;;;;;;;192.80;90.50;;;;;;;-3.47;97.15;99126.67;131734;1298;22594;-79
2023/12/02 05:21:18;;;;;;;196.70;91.70;;;;;;;-3.45;97.25;99131.66;131657;1298;26212;-80
2023/12/02 05:24:19;;;;;;;191.70;89.60;;;;;;;-3.44;96.92;99130.95;131655;1298;24412;-80
2023/12/02 05:27:20;;;;;;;187.10;87.40;;;;;;;-3.42;96.73;99129.93;131740;1298;24256;-79
2023/12/02 05:30:20;;;;;;;185.00;90.10;;;;;;;-3.40;96.89;99139.17;131414;1298;22591;-80
2023/12/02 05:33:22;;;;;;;184.40;86.20;;;;;;;-3.37;96.83;99135.17;131863;1294;22563;-79
2023/12/02 05:36:22;;;;;;;175.50;83.80;;;;;;;-3.38;96.74;99129.88;131560;1298;22567;-79
2023/12/02 05:39:23;;;;;;;183.70;84.80;;;;;;;-3.41;96.45;99121.73;131525;1292;26537;-80
2023/12/02 05:42:24;;;;;;;171.10;79.00;;;;;;;-3.45;96.59;99111.98;131618;1297;24334;-80
2023/12/02 05:45:24;;;;;;;155.60;74.50;;;;;;;-3.45;96.65;99115.83;131817;1298;22638;-79
2023/12/02 05:48:25;;;;;;;162.10;74.80;;;;;;;-3.46;96.55;99116.20;131545;1291;25382;-79
2023/12/02 05:51:25;;;;;;;172.80;74.70;;;;;;;-3.45;96.60;99102.67;131587;1297;22650;-80
2023/12/02 05:54:26;;;;;;;160.80;73.50;;;;;;;-3.44;96.69;99108.08;131698;1299;25294;-80
2023/12/02 05:57:27;;;;;;;156.70;76.00;;;;;;;-3.42;96.66;99111.94;131282;1289;24304;-79
2023/12/02 06:00:27;;;;;;;157.50;73.90;;;;;;;-3.42;96.64;99119.77;131666;1298;22587;-80
2023/12/02 06:03:28;;;;;;;167.50;80.70;;;;;;;-3.44;96.39;99123.54;131506;1298;24315;-80
2023/12/02 06:06:29;;;;;;;156.10;74.40;;;;;;;-3.44;96.44;99125.24;131544;1289;24445;-79
2023/12/02 06:09:29;;;;;;;160.80;75.60;;;;;;;-3.46;96.40;99135.20;132171;1298;25259;-81
2023/12/02 06:12:30;;;;;;;162.70;76.70;;;;;;;-3.45;96.57;99131.66;130974;1300;22667;-82
2023/12/02 06:15:30;;;;;;;144.90;71.20;;;;;;;-3.45;96.20;99138.27;131221;1294;25674;-81
2023/12/02 06:18:31;;;;;;;147.70;71.30;;;;;;;-3.45;96.52;99144.48;131394;1294;24220;-81
2023/12/02 06:21:31;;;;;;;144.00;67.50;;;;;;;-3.47;96.19;99138.73;131379;1298;22967;-83
2023/12/02 06:24:32;;;;;;;137.40;65.50;;;;;;;-3.49;96.43;99133.70;131557;1294;24953;-81
2023/12/02 06:27:32;;;;;;;131.60;63.50;;;;;;;-3.50;96.28;99137.36;131499;1298;22559;-80
2023/12/02 06:30:33;;;;;;;127.90;63.30;;;;;;;-3.50;96.41;99136.20;131276;1298;22668;-82
2023/12/02 06:33:34;;;;;;;132.30;62.60;;;;;;;-3.51;96.30;99143.85;131072;1304;22665;-82
2023/12/02 06:36:34;;;;;;;132.20;62.10;;;;;;;-3.51;96.17;99152.50;131056;1289;22595;-83
2023/12/02 06:39:35;;;;;;;119.20;59.00;;;;;;;-3.50;96.17;99155.42;131580;1299;24872;-82
2023/12/02 06:42:35;;;;;;;122.70;62.80;;;;;;;-3.51;96.15;99161.84;131037;1301;23161;-83
2023/12/02 06:45:36;;;;;;;120.00;56.80;;;;;;;-3.51;96.08;99162.20;131337;1301;22593;-84
2023/12/02 06:48:37;;;;;;;110.90;54.70;;;;;;;-3.52;95.97;99156.22;131347;1298;22591;-81
2023/12/02 06:51:37;;;;;;;113.30;54.90;;;;;;;-3.55;96.00;99160.89;131340;1298;22552;-81
2023/12/02 06:54:38;;;;;;;106.80;51.30;;;;;;;-3.55;96.08;99164.56;131114;1298;24740;-81
2023/12/02 06:57:38;;;;;;;116.90;56.00;;;;;;;-3.55;96.01;99166.44;131225;1298;22673;-80
2023/12/02 07:00:39;;;;;;;103.30;50.90;;;;;;;-3.55;96.13;99166.98;131451;1298;23395;-79
2023/12/02 07:03:40;;;;;;;;;;;;;;;-3.54;96.09;99171.41;131402;1292;22575;-80
2023/12/02 07:06:40;;;;;;;106.80;50.00;;;;;;;-3.52;96.42;99170.41;131432;1298;24549;-81
2023/12/02 07:09:41;;;;;;;111.80;53.90;;;;;;;-3.50;96.44;99171.15;131064;1300;24761;-81
2023/12/02 07:12:41;;;;;;;107.60;53.00;;;;;;;-3.47;96.46;99171.82;131452;1298;25373;-80
2023/12/02 07:15:42;;;;;;;116.70;55.80;;;;;;;-3.46;96.52;99166.55;131458;1298;24505;-80
2023/12/02 07:18:43;;;;;;;108.80;50.80;;;;;;;-3.42;96.57;99167.31;131699;1298;23054;-80
2023/12/02 07:21:43;;;;;;;100.40;48.30;;;;;;;-3.38;96.59;99170.17;131690;1298;22740;-81
2023/12/02 07:24:44;;;;;;;100.20;48.50;;;;;;;-3.36;96.52;99175.20;131708;1299;22603;-81
2023/12/02 07:27:44;;;;;;;63.70;32.80;;;;;;;-3.34;96.40;99178.39;131740;1289;25058;-81
2023/12/02 07:30:50;;;;;;;90.50;44.60;;;;;;;-3.31;96.43;99180.92;131426;1291;28176;-81
2023/12/02 07:33:51;;;;;;;94.70;45.10;;;;;;;-3.29;96.45;99187.20;131683;1298;23266;-81
2023/12/02 07:36:51;;;;;;;91.90;45.20;;;;;;;-3.24;96.49;99189.79;131856;1295;27230;-80
2023/12/02 07:39:52;;;;;;;96.70;47.70;;;;;;;-3.16;96.61;99186.70;131768;1288;22574;-81
2023/12/02 07:42:52;;;;;;;92.80;45.60;;;;;;;-3.09;96.56;99186.94;131751;1298;24491;-80
2023/12/02 07:45:53;;;;;;;95.00;48.50;;;;;;;-3.03;96.30;99191.70;131626;1293;25271;-80
2023/12/02 07:48:53;;;;;;;88.20;44.30;;;;;;;-2.95;96.60;99202.89;132702;1298;22429;-81
2023/12/02 07:51:54;;;;;;;84.20;43.60;;;;;;;-2.88;96.61;99212.16;131439;1289;25275;-80
2023/12/02 07:54:54;;;;;;;85.60;44.10;;;;;;;-2.86;96.20;99217.91;131656;1289;24835;-81
2023/12/02 07:57:55;;;;;;;91.60;45.00;;;;;;;-2.80;96.38;99224.39;131793;1298;25469;-80
2023/12/02 08:00:55;;;;;;;99.40;46.70;;;;;;;-2.71;96.46;99225.55;131484;1298;24954;-80
2023/12/02 08:03:56;;;;;;;100.70;47.80;;;;;;;-2.62;96.56;99233.61;132081;1297;22612;-80
2023/12/02 08:06:56;;;;;;;93.60;45.20;;;;;;;-2.59;95.98;99235.81;131739;1291;22638;-78
2023/12/02 08:09:57;;;;;;;89.10;42.90;;;;;;;-2.56;96.01;99241.13;131316;1295;22562;-82
2023/12/02 08:12:57;;;;;;;83.90;43.10;;;;;;;-2.53;95.89;99242.84;131728;1298;22643;-79
2023/12/02 08:15:58;;;;;;;89.30;41.50;;;;;;;-2.50;95.55;99238.98;131663;1291;24318;-79
2023/12/02 08:18:58;;;;;;;77.80;40.80;;;;;;;-2.45;95.97;99230.16;132218;1298;23517;-81
2023/12/02 08:21:59;;;;;;;86.70;42.40;;;;;;;-2.43;95.66;99231.23;132264;1288;22589;-85
2023/12/02 08:24:59;;;;;;;85.60;44.00;;;;;;;-2.46;95.63;99221.91;131253;1295;22571;-79
2023/12/02 08:28:00;;;;;;;85.60;43.80;;;;;;;-2.41;95.70;99220.16;131932;1294;23338;-82
2023/12/02 08:31:00;;;;;;;89.70;45.00;;;;;;;-2.38;95.77;99221.34;131664;1298;22792;-79
2023/12/02 08:34:02;;;;;;;84.60;42.30;;;;;;;-2.34;95.68;99216.24;132180;1291;27973;-81
2023/12/02 08:37:03;;;;;;;83.40;43.70;;;;;;;-2.29;95.58;99217.77;131557;1301;25303;-80
2023/12/02 08:40:05;;;;;;;82.30;43.90;;;;;;;-2.18;95.44;99206.63;131634;1298;22559;-81
2023/12/02 08:43:06;;;;;;;86.30;45.20;;;;;;;-2.04;95.63;99213.77;131383;1295;22589;-81
2023/12/02 08:46:13;;;;;;;88.40;44.30;;;;;;;-1.89;95.75;99221.23;131270;1299;22794;-83
2023/12/02 08:49:14;;;;;;;84.80;47.60;;;;;;;-1.87;95.25;99219.16;131609;1297;22648;-83
2023/12/02 08:52:14;;;;;;;100.70;50.40;;;;;;;-1.86;94.56;99232.58;131200;1298;22613;-81
2023/12/02 08:55:15;;;;;;;96.30;48.00;;;;;;;-1.88;94.72;99236.95;131457;1297;22769;-83
2023/12/02 08:58:15;;;;;;;98.90;49.90;;;;;;;-1.82;94.94;99246.52;131445;1297;22869;-81
2023/12/02 09:01:16;;;;;;;94.80;47.20;;;;;;;-1.71;95.11;99246.63;131710;1291;22040;-80
2023/12/02 09:04:17;;;;;;;88.60;46.80;;;;;;;-1.56;95.50;99249.52;132644;1298;23242;-78
2023/12/02 09:07:17;;;;;;;98.40;48.90;;;;;;;-1.41;95.27;99239.06;131568;1298;22607;-82
2023/12/02 09:10:18;;;;;;;92.10;47.50;;;;;;;-1.32;94.90;99229.05;131515;1297;23364;-83
2023/12/02 09:13:40;;;;;;;88.40;45.90;;;;;;;-1.35;94.48;99216.77;131519;1289;23001;-83
2023/12/02 09:16:46;;;;;;;89.10;46.40;;;;;;;-1.29;94.56;99217.18;131626;1298;25440;-82
2023/12/02 09:19:54;;;;;;;95.80;48.90;;;;;;;-1.18;94.51;99209.97;131643;1298;22611;-80
2023/12/02 09:23:00;;;;;;;90.90;47.40;;;;;;;-1.16;94.00;99213.27;131375;1295;23493;-83
2023/12/02 09:26:04;;;;;;;97.60;48.40;;;;;;;-1.19;93.64;99214.77;131638;1298;22563;-81
2023/12/02 09:29:04;;;;;;;95.60;46.40;;;;;;;-1.23;93.47;99224.71;131497;1295;22609;-82
2023/12/02 09:32:22;;;;;;;100.80;48.90;;;;;;;-1.24;93.87;99228.26;131542;1298;23407;-82
2023/12/02 09:35:23;;;;;;;97.20;49.10;;;;;;;-1.25;93.16;99239.80;131546;1289;22682;-82
2023/12/02 09:38:24;;;;;;;90.10;49.50;;;;;;;-1.27;93.44;99241.54;131345;1298;23261;-80
2023/12/02 09:41:44;;;;;;;89.70;48.70;;;;;;;-1.24;93.41;99234.19;131246;1298;22671;-80
2023/12/02 09:44:50;;;;;;;92.80;48.30;;;;;;;-1.19;93.59;99233.95;131541;1298;23812;-81
2023/12/02 09:48:19;;;;;;;85.90;46.10;;;;;;;-1.15;93.21;99236.60;131706;1298;22593;-81
2023/12/02 09:51:55;;;;;;;101.90;52.30;;;;;;;-1.15;93.14;99224.14;131604;1299;22887;-82
2023/12/02 09:55:36;;;;;;;96.80;49.20;;;;;;;-1.19;92.71;99211.05;130925;1298;23479;-82
2023/12/02 09:58:46;;;;;;;95.80;50.80;;;;;;;-1.32;92.35;99205.29;131464;1298;22572;-82
2023/12/02 10:01:55;;;;;;;92.30;49.60;;;;;;;-1.39;92.87;99220.70;131576;1288;24246;-83
2023/12/02 10:05:15;;;;;;;93.60;48.60;;;;;;;-1.37;92.76;99227.29;131943;1298;22579;-81
2023/12/02 10:08:26;;;;;;;100.30;49.50;;;;;;;-1.36;92.74;99213.01;131403;1292;25509;-81
2023/12/02 10:11:33;;;;;;;;;;;;;;;-1.44;92.31;99197.66;131818;1289;22593;-80
2023/12/02 10:14:39;;;;;;;90.30;46.90;;;;;;;-1.50;92.36;99184.91;132075;1288;22606;-81
2023/12/02 10:17:52;;;;;;;84.50;45.00;;;;;;;-1.53;92.58;99168.29;131414;1298;23947;-80
2023/12/02 10:21:01;;;;;;;88.60;45.60;;;;;;;-1.48;92.66;99151.14;131432;1298;22586;-79
2023/12/02 10:24:10;;;;;;;94.10;48.90;;;;;;;-1.43;92.37;99141.39;132104;1291;22644;-82
2023/12/02 10:27:16;;;;;;;91.10;48.50;;;;;;;-1.29;92.86;99155.92;131724;1297;22573;-81
2023/12/02 10:30:22;;;;;;;104.80;53.90;;;;;;;-1.16;93.04;99181.33;132365;1298;22560;-79
2023/12/02 10:33:27;;;;;;;95.30;48.80;;;;;;;-1.09;92.78;99192.79;131403;1298;22612;-82
2023/12/02 10:36:32;;;;;;;98.20;49.70;;;;;;;-1.12;92.12;99198.40;131611;1289;23817;-81
2023/12/02 10:39:51;;;;;;;91.40;47.20;;;;;;;-1.19;92.14;99199.83;131649;1297;22595;-82
2023/12/02 10:43:18;;;;;;;88.60;45.30;;;;;;;-1.21;92.29;99212.43;131701;1298;23317;-82
2023/12/02 10:46:19;;;;;;;91.90;46.20;;;;;;;-1.20;92.52;99240.50;131613;1298;22563;-83
2023/12/02 10:49:19;;;;;;;;;;;;;;;-1.21;92.53;99249.37;131427;1298;22657;-81
2023/12/02 10:52:21;;;;;;;91.00;46.00;;;;;;;-1.24;92.31;99252.93;131690;1298;22577;-82
2023/12/02 10:55:25;;;;;;;94.50;48.70;;;;;;;-1.31;92.27;99267.31;131358;1298;22561;-82
2023/12/02 10:58:28;;;;;;;96.90;47.70;;;;;;;-1.36;92.21;99269.90;132001;1298;22609;-81
2023/12/02 11:01:34;;;;;;;103.80;52.60;;;;;;;-1.42;92.07;99258.73;131690;1298;22552;-81
2023/12/02 11:04:45;;;;;;;93.60;47.20;;;;;;;-1.43;92.26;99243.23;131685;1298;25410;-79
2023/12/02 11:07:53;;;;;;;;;;;;;;;-1.50;92.17;99212.46;131680;1292;26522;-80
2023/12/02 11:10:58;;;;;;;96.10;47.20;;;;;;;-1.56;92.10;99195.77;131848;1298;22576;-80
2023/12/02 11:14:00;;;;;;;93.40;48.70;;;;;;;-1.53;92.39;99182.85;131404;1298;22782;-82
2023/12/02 11:17:33;;;;;;;86.30;45.30;;;;;;;-1.53;92.49;99173.39;131578;1295;25303;-81
2023/12/02 11:20:52;;;;;;;90.70;44.80;;;;;;;-1.63;92.23;99187.40;131734;1289;22660;-81
2023/12/02 11:24:06;;;;;;;91.60;48.10;;;;;;;-1.62;92.63;99187.02;131415;1298;22638;-80
2023/12/02 11:27:13;;;;;;;96.10;47.60;;;;;;;-1.57;92.87;99200.02;131386;1289;24072;-79
2023/12/02 11:30:23;;;;;;;104.60;53.60;;;;;;;-1.48;92.69;99202.98;131701;1298;22623;-80
2023/12/02 11:34:02;;;;;;;107.30;53.20;;;;;;;-1.42;92.81;99187.07;131589;1297;25416;-81
2023/12/02 11:37:08;;;;;;;101.80;52.60;;;;;;;-1.42;92.55;99171.27;131366;1295;22619;-84
2023/12/02 11:40:22;;;;;;;105.10;53.90;;;;;;;-1.46;92.44;99180.77;131571;1289;22988;-81
2023/12/02 11:43:41;;;;;;;101.40;52.80;;;;;;;-1.43;92.86;99173.80;131320;1298;22568;-83
2023/12/02 11:47:07;;;;;;;102.70;54.30;;;;;;;-1.41;92.91;99166.52;131591;1298;23364;-82
2023/12/02 11:50:15;;;;;;;119.00;58.80;;;;;;;-1.41;92.43;99164.82;131574;1301;22553;-81
2023/12/02 11:53:45;;;;;;;102.90;55.70;;;;;;;-1.46;92.31;99166.05;131281;1291;22670;-82
2023/12/02 11:56:59;;;;;;;112.60;58.60;;;;;;;-1.52;92.28;99161.98;131192;1298;22678;-80
2023/12/02 12:00:09;;;;;;;113.90;57.80;;;;;;;-1.55;92.51;99167.59;131509;1298;22661;-81
2023/12/02 12:03:24;;;;;;;118.90;62.30;;;;;;;-1.54;92.76;99169.45;132700;1292;22634;-80
2023/12/02 12:06:47;;;;;;;140.10;68.70;;;;;;;-1.53;92.88;99164.66;131514;1298;23897;-81
2023/12/02 12:10:08;;;;;;;114.40;58.30;;;;;;;-1.51;92.73;99167.84;131280;1297;22578;-79
2023/12/02 12:13:11;;;;;;;88.10;46.40;;;;;;;-1.52;92.89;99180.41;131235;1297;24480;-83
2023/12/02 12:16:11;;;;;;;114.70;57.60;;;;;;;-1.49;92.85;99169.40;131357;1298;23493;-81
2023/12/02 12:19:13;;;;;;;108.50;55.10;;;;;;;-1.45;93.05;99160.27;131495;1295;24163;-79
2023/12/02 12:22:14;;;;;;;105.00;51.40;;;;;;;-1.44;92.68;99162.08;132052;1298;26509;-81
2023/12/02 12:25:15;;;;;;;98.50;50.10;;;;;;;-1.48;92.35;99165.50;131511;1298;22586;-80
2023/12/02 12:28:15;;;;;;;;;;;;;;;-1.50;92.65;99173.52;131198;1298;22685;-81
2023/12/02 12:31:17;;;;;;;101.30;50.20;;;;;;;-1.53;92.33;99173.52;131678;1299;23411;-81
2023/12/02 12:34:18;;;;;;;93.90;49.10;;;;;;;-1.57;92.34;99164.95;131664;1289;22695;-80
2023/12/02 12:37:18;;;;;;;96.60;48.00;;;;;;;-1.62;92.39;99158.70;131626;1294;22631;-78
2023/12/02 12:40:19;;;;;;;101.30;50.10;;;;;;;-1.62;92.41;99155.29;131648;1297;22634;-81
2023/12/02 12:43:19;;;;;;;100.10;52.30;;;;;;;-1.64;92.54;99165.82;131605;1298;22615;-80
2023/12/02 12:46:20;;;;;;;101.90;51.00;;;;;;;-1.64;92.54;99164.42;131642;1282;24699;-80
2023/12/02 12:49:25;;;;;;;104.00;52.50;;;;;;;-1.67;92.40;99153.53;131676;1293;22608;-82
2023/12/02 12:52:26;;;;;;;104.40;54.10;;;;;;;-1.70;92.60;99149.61;131680;1298;24247;-79
2023/12/02 12:55:29;;;;;;;105.00;54.70;;;;;;;-1.71;92.43;99142.61;131758;1298;22580;-80
2023/12/02 12:58:30;;;;;;;113.00;52.50;;;;;;;-1.72;92.70;99127.58;132103;1298;22588;-79
2023/12/02 13:01:33;;;;;;;102.40;50.40;;;;;;;-1.75;92.36;99136.16;131726;1297;22591;-81
2023/12/02 13:04:37;;;;;;;97.60;50.70;;;;;;;-1.85;92.53;99141.52;131673;1298;25255;-79
2023/12/02 13:08:01;;;;;;;106.50;52.20;;;;;;;-1.90;92.40;99146.02;131296;1298;23244;-78
2023/12/02 13:11:07;;;;;;;108.50;54.70;;;;;;;-1.92;92.79;99140.84;131458;1298;22582;-82
2023/12/02 13:14:10;;;;;;;110.90;54.20;;;;;;;-1.93;92.85;99130.70;131704;1291;23207;-81
2023/12/02 13:17:13;;;;;;;96.40;49.10;;;;;;;-1.95;92.77;99129.61;131712;1294;22559;-78
2023/12/02 13:20:22;;;;;;;100.90;53.20;;;;;;;-1.97;92.71;99130.64;131899;1297;23230;-79
2023/12/02 13:23:25;;;;;;;103.00;53.40;;;;;;;-1.98;92.83;99123.95;131438;1295;23448;-81
2023/12/02 13:26:32;;;;;;;100.70;51.80;;;;;;;-1.99;92.66;99122.30;132217;1298;24286;-80
2023/12/02 13:29:35;;;;;;;101.30;54.60;;;;;;;-2.02;92.74;99109.00;131284;1298;22552;-81
2023/12/02 13:32:41;;;;;;;100.90;53.80;;;;;;;-2.06;92.68;99114.98;131670;1299;23412;-81
2023/12/02 13:35:49;;;;;;;100.10;52.00;;;;;;;-2.11;92.75;99124.02;131661;1298;25473;-81
2023/12/02 13:39:15;;;;;;;112.50;55.60;;;;;;;-2.12;92.94;99125.28;131742;1298;24623;-79
2023/12/02 13:42:16;;;;;;;105.00;54.30;;;;;;;-2.13;92.67;99140.80;131716;1298;24458;-79
2023/12/02 13:45:20;;;;;;;101.10;53.10;;;;;;;-2.15;93.02;99151.68;131722;1298;23150;-83
2023/12/02 13:48:37;;;;;;;93.50;51.60;;;;;;;-2.19;92.92;99159.36;131696;1298;23652;-80
2023/12/02 13:51:41;;;;;;;99.60;49.60;;;;;;;-2.24;93.11;99165.13;131479;1291;22628;-82